Time;durP1;ratioP1;P1;durP2;ratioP2;P2;SDS_P1;SDS_P2;PMS_P1;PMS_P2;Temp;Humidity;BMP_temperature;BMP_pressure;BME280_temperature;BME280_humidity;BME280_pressure;Samples;Min_cycle;Max_cycle;Signal;HPM_P1;HPM_P2
2022/04/06 00:00:03;;;;;;;2.43;2.30;;;9.70;99.90;;;;;;5049232;28;20916;-74
2022/04/06 00:02:29;;;;;;;4.80;2.30;;;9.70;99.90;;;;;;5047482;28;20919;-74
2022/04/06 00:04:54;;;;;;;2.97;2.63;;;9.70;99.90;;;;;;5048749;28;20544;-74
2022/04/06 00:07:20;;;;;;;3.67;2.30;;;9.70;99.90;;;;;;5048891;28;20184;-74
2022/04/06 00:09:46;;;;;;;3.07;2.87;;;9.70;99.90;;;;;;5047727;28;20187;-74
2022/04/06 00:12:11;;;;;;;4.13;3.73;;;9.70;99.90;;;;;;5048723;28;20192;-75
2022/04/06 00:14:37;;;;;;;6.30;4.73;;;9.70;99.90;;;;;;5048893;28;20203;-74
2022/04/06 00:17:05;;;;;;;3.20;2.87;;;9.70;99.90;;;;;;5048854;28;20712;-74
2022/04/06 00:19:32;;;;;;;3.07;2.10;;;9.70;99.90;;;;;;5048918;28;20427;-75
2022/04/06 00:21:58;;;;;;;2.27;2.17;;;9.70;99.90;;;;;;5048820;28;20943;-74
2022/04/06 00:24:24;;;;;;;4.73;2.30;;;9.70;99.90;;;;;;5048674;28;20435;-74
2022/04/06 00:26:49;;;;;;;2.77;2.57;;;9.70;99.90;;;;;;5048593;28;20181;-74
2022/04/06 00:29:15;;;;;;;2.70;1.90;;;9.70;99.90;;;;;;5049277;28;20193;-74
2022/04/06 00:31:41;;;;;;;2.97;2.37;;;9.70;99.90;;;;;;5048619;28;20262;-73
2022/04/06 00:34:06;;;;;;;2.47;2.03;;;9.60;99.90;;;;;;5047017;28;20269;-75
2022/04/06 00:36:32;;;;;;;2.50;2.30;;;9.60;99.90;;;;;;5048539;28;20238;-75
2022/04/06 00:38:58;;;;;;;3.23;2.47;;;9.60;99.90;;;;;;5048641;28;20183;-74
2022/04/06 00:41:23;;;;;;;2.97;2.77;;;9.60;99.90;;;;;;5048626;28;20188;-75
2022/04/06 00:44:16;;;;;;;3.57;2.83;;;9.60;99.90;;;;;;5047125;28;20842;-74
2022/04/06 00:46:43;;;;;;;3.40;1.97;;;9.60;99.90;;;;;;5048411;28;20217;-75
2022/04/06 00:49:11;;;;;;;4.93;2.37;;;9.60;99.90;;;;;;5048495;28;20863;-75
2022/04/06 00:51:41;;;;;;;2.23;2.03;;;9.60;99.90;;;;;;5048519;28;20419;-75
2022/04/06 00:54:08;;;;;;;2.37;2.17;;;9.50;99.90;;;;;;5046891;28;20473;-74
2022/04/06 00:56:34;;;;;;;2.50;2.30;;;9.50;99.90;;;;;;5048230;28;20438;-75
2022/04/06 00:59:00;;;;;;;4.40;2.30;;;9.50;99.90;;;;;;5049508;28;20406;-75
2022/04/06 01:01:26;;;;;;;2.80;2.60;;;9.50;99.90;;;;;;5049599;28;20481;-75
2022/04/06 01:03:51;;;;;;;1.90;1.80;;;9.50;99.90;;;;;;5052951;28;20418;-76
2022/04/06 01:06:17;;;;;;;3.83;2.63;;;9.50;99.90;;;;;;5051539;28;20281;-76
2022/04/06 01:08:42;;;;;;;5.40;3.50;;;9.50;99.90;;;;;;5051686;28;20183;-76
2022/04/06 01:11:08;;;;;;;3.03;2.73;;;9.50;99.90;;;;;;5034748;28;20189;-76
2022/04/06 01:13:34;;;;;;;2.73;2.53;;;9.50;99.90;;;;;;5052932;28;20244;-77
2022/04/06 01:16:00;;;;;;;2.77;2.50;;;9.50;99.90;;;;;;5053026;28;20199;-77
2022/04/06 01:18:25;;;;;;;2.97;2.67;;;9.40;99.90;;;;;;5053415;28;20472;-76
2022/04/06 01:20:51;;;;;;;2.20;2.00;;;9.40;99.90;;;;;;5052575;28;20186;-75
2022/04/06 01:23:17;;;;;;;2.30;2.20;;;9.60;99.90;;;;;;5052257;28;20207;-75
2022/04/06 01:25:42;;;;;;;2.37;2.27;;;9.50;99.90;;;;;;5052004;28;20204;-75
2022/04/06 01:28:08;;;;;;;2.47;2.27;;;9.50;99.90;;;;;;5052546;28;20194;-76
2022/04/06 01:30:33;;;;;;;2.60;2.37;;;9.50;99.90;;;;;;5050455;28;20692;-75
2022/04/06 01:33:04;;;;;;;2.30;2.10;;;9.50;99.90;;;;;;5050706;28;20348;-75
2022/04/06 01:35:30;;;;;;;2.60;2.50;;;9.40;99.90;;;;;;5052063;28;20200;-75
2022/04/06 01:37:56;;;;;;;2.63;2.43;;;9.40;99.90;;;;;;5051980;28;20527;-75
2022/04/06 01:40:21;;;;;;;2.90;2.37;;;9.40;99.90;;;;;;5051865;28;20419;-75
2022/04/06 01:42:47;;;;;;;2.40;2.20;;;9.50;99.90;;;;;;5051980;28;20267;-75
2022/04/06 01:45:13;;;;;;;2.87;2.67;;;9.50;99.90;;;;;;5052056;28;20334;-75
2022/04/06 01:47:38;;;;;;;3.00;2.67;;;9.50;99.90;;;;;;5052303;28;20233;-74
2022/04/06 01:52:49;;;;;;;2.27;2.07;;;9.50;99.90;;;;;;5051833;28;20280;-73
2022/04/06 01:55:15;;;;;;;2.10;2.00;;;9.50;99.90;;;;;;5051704;28;20880;-75
2022/04/06 01:57:42;;;;;;;2.70;2.50;;;9.50;99.90;;;;;;5051740;28;20511;-74
2022/04/06 02:00:11;;;;;;;2.27;2.17;;;9.60;99.90;;;;;;5051567;28;20418;-73
2022/04/06 02:02:38;;;;;;;2.37;2.17;;;9.50;99.90;;;;;;5051437;28;20433;-73
2022/04/06 02:05:04;;;;;;;3.03;2.57;;;9.40;99.90;;;;;;5050973;28;20461;-74
2022/04/06 02:07:29;;;;;;;2.40;2.20;;;9.50;99.90;;;;;;5051090;28;20481;-73
2022/04/06 02:09:58;;;;;;;2.20;2.10;;;9.40;99.90;;;;;;5050978;28;20422;-73
2022/04/06 02:12:24;;;;;;;7.10;2.10;;;9.40;99.90;;;;;;5051004;28;20261;-73
2022/04/06 02:14:50;;;;;;;2.13;1.80;;;9.50;99.90;;;;;;5050612;28;20426;-76
2022/04/06 02:17:16;;;;;;;2.50;2.30;;;9.40;99.90;;;;;;5049521;28;20430;-76
2022/04/06 02:19:42;;;;;;;3.53;2.30;;;9.40;99.90;;;;;;5051996;28;20208;-76
2022/04/06 02:22:08;;;;;;;3.43;1.80;;;9.40;99.90;;;;;;5050891;28;20853;-76
2022/04/06 02:24:34;;;;;;;1.80;1.60;;;9.40;99.90;;;;;;5050725;28;20207;-77
2022/04/06 02:27:00;;;;;;;2.37;2.17;;;9.40;99.90;;;;;;5049123;28;20431;-75
2022/04/06 02:29:26;;;;;;;2.73;2.53;;;9.40;99.90;;;;;;5050864;28;20554;-73
2022/04/06 02:31:52;;;;;;;2.20;2.00;;;9.40;99.90;;;;;;5050616;28;20416;-74
2022/04/06 02:34:18;;;;;;;1.50;1.40;;;9.40;99.90;;;;;;5048866;28;20514;-74
2022/04/06 02:36:44;;;;;;;2.03;1.93;;;9.40;99.90;;;;;;5050483;28;20465;-75
2022/04/06 02:39:10;;;;;;;4.03;2.33;;;9.30;99.90;;;;;;5050340;28;20462;-73
2022/04/06 02:41:35;;;;;;;2.20;2.10;;;9.40;99.90;;;;;;5050582;28;20200;-73
2022/04/06 02:44:01;;;;;;;6.20;2.50;;;9.40;99.90;;;;;;5050405;28;20645;-75
2022/04/06 02:46:27;;;;;;;4.60;3.87;;;9.30;99.90;;;;;;5050515;28;20216;-74
2022/04/06 02:48:52;;;;;;;2.87;2.67;;;9.40;99.90;;;;;;5050295;28;20648;-74
2022/04/06 02:51:18;;;;;;;4.70;3.47;;;9.30;99.90;;;;;;5050165;28;20195;-75
2022/04/06 02:53:44;;;;;;;3.60;3.30;;;9.40;99.90;;;;;;5050062;28;20224;-72
2022/04/06 02:56:09;;;;;;;4.53;3.27;;;9.40;99.90;;;;;;5050030;28;20282;-73
2022/04/06 02:58:35;;;;;;;2.80;2.60;;;9.40;99.90;;;;;;5050116;28;20184;-73
2022/04/06 03:01:00;;;;;;;5.13;4.60;;;9.40;99.90;;;;;;5050103;28;20185;-74
2022/04/06 03:03:26;;;;;;;3.57;3.10;;;9.40;99.90;;;;;;5049975;28;20192;-72
2022/04/06 03:05:52;;;;;;;3.33;3.03;;;9.30;99.90;;;;;;5049618;28;20247;-72
2022/04/06 03:08:18;;;;;;;3.43;3.13;;;9.30;99.90;;;;;;5048919;28;20645;-73
2022/04/06 03:10:43;;;;;;;3.73;3.43;;;9.30;99.90;;;;;;5050984;28;20286;-70
2022/04/06 03:13:09;;;;;;;3.97;3.67;;;9.40;99.90;;;;;;5048324;28;20219;-72
2022/04/06 03:15:35;;;;;;;4.03;3.73;;;9.30;99.90;;;;;;5049671;28;20216;-72
2022/04/06 03:18:02;;;;;;;4.47;4.07;;;9.30;99.90;;;;;;5050010;28;20700;-73
2022/04/06 03:20:28;;;;;;;4.17;3.80;;;9.40;99.90;;;;;;5049731;28;20283;-74
2022/04/06 03:22:54;;;;;;;8.27;4.30;;;9.40;99.90;;;;;;5049499;28;20521;-73
2022/04/06 03:25:20;;;;;;;3.93;3.63;;;9.30;99.90;;;;;;5048745;28;20208;-73
2022/04/06 03:27:45;;;;;;;3.97;3.67;;;9.30;99.90;;;;;;5049533;28;20641;-72
2022/04/06 03:30:11;;;;;;;4.47;3.90;;;9.30;99.90;;;;;;5049387;28;20430;-74
2022/04/06 03:32:38;;;;;;;4.87;4.37;;;9.30;99.90;;;;;;5049260;28;20215;-73
2022/04/06 03:35:04;;;;;;;6.70;5.20;;;9.20;99.90;;;;;;5047818;28;20214;-73
2022/04/06 03:37:30;;;;;;;3.63;3.33;;;9.30;99.90;;;;;;5049404;28;20480;-73
2022/04/06 03:39:56;;;;;;;4.77;4.37;;;9.20;99.90;;;;;;5047799;28;20431;-74
2022/04/06 03:42:21;;;;;;;5.07;4.57;;;9.20;99.90;;;;;;5047821;28;20424;-74
2022/04/06 03:44:47;;;;;;;4.67;4.27;;;9.20;99.90;;;;;;5049141;28;20213;-74
2022/04/06 03:47:12;;;;;;;4.57;4.17;;;9.20;99.90;;;;;;5047479;28;20567;-72
2022/04/06 03:49:38;;;;;;;4.97;4.57;;;9.30;99.90;;;;;;5049042;28;20184;-73
2022/04/06 03:52:04;;;;;;;5.27;4.20;;;9.20;99.90;;;;;;5049025;28;20188;-72
2022/04/06 03:54:30;;;;;;;4.50;4.10;;;9.20;99.90;;;;;;5049157;28;20336;-73
2022/04/06 03:56:55;;;;;;;5.80;4.23;;;9.30;99.90;;;;;;5049190;28;20505;-71
2022/04/06 03:59:21;;;;;;;6.13;4.93;;;9.20;99.90;;;;;;5048895;28;20183;-73
2022/04/06 04:01:47;;;;;;;10.00;5.17;;;9.20;99.90;;;;;;5048853;28;20270;-74
2022/04/06 04:04:12;;;;;;;4.70;4.30;;;9.30;99.90;;;;;;5048772;28;20204;-73
2022/04/06 04:06:38;;;;;;;4.73;4.33;;;9.30;99.90;;;;;;5048715;28;20216;-72
2022/04/06 04:09:04;;;;;;;7.80;5.33;;;9.20;99.90;;;;;;5048832;28;20190;-72
2022/04/06 04:11:30;;;;;;;6.00;5.40;;;9.20;99.90;;;;;;5047240;28;20422;-73
2022/04/06 04:13:56;;;;;;;6.83;5.10;;;9.20;99.90;;;;;;5046966;28;20215;-73
2022/04/06 04:16:22;;;;;;;7.60;5.57;;;9.20;99.90;;;;;;5047043;28;20820;-73
2022/04/06 04:18:48;;;;;;;5.20;4.70;;;9.20;99.90;;;;;;5048552;28;20424;-73
2022/04/06 04:21:32;;;;;;;5.30;4.80;;;9.20;99.90;;;;;;5048325;28;20473;-73
2022/04/06 04:24:01;;;;;;;6.00;4.87;;;9.20;99.90;;;;;;5047840;28;20192;-74
2022/04/06 04:26:28;;;;;;;6.37;5.20;;;9.20;99.90;;;;;;5046438;28;20833;-74
2022/04/06 04:28:53;;;;;;;5.83;3.87;;;9.20;99.90;;;;;;5048130;28;20422;-73
2022/04/06 04:31:19;;;;;;;5.90;4.97;;;9.30;99.90;;;;;;5047080;28;20528;-73
2022/04/06 04:33:44;;;;;;;5.17;4.73;;;9.10;99.90;;;;;;5046895;28;20215;-74
2022/04/06 04:36:10;;;;;;;4.53;4.17;;;9.30;99.90;;;;;;5046962;28;20234;-74
2022/04/06 04:38:39;;;;;;;5.83;5.30;;;9.30;99.90;;;;;;5045287;28;20237;-73
2022/04/06 04:41:08;;;;;;;6.37;5.10;;;9.30;99.90;;;;;;5045661;28;20192;-73
2022/04/06 04:43:35;;;;;;;7.47;5.00;;;9.30;99.90;;;;;;5046942;28;20500;-72
2022/04/06 04:46:01;;;;;;;14.07;9.10;;;9.30;99.90;;;;;;5046814;28;20453;-72
2022/04/06 04:48:26;;;;;;;9.80;6.60;;;9.30;99.90;;;;;;5046838;28;20427;-74
2022/04/06 04:50:52;;;;;;;5.80;5.30;;;9.30;99.90;;;;;;5047206;28;20183;-72
2022/04/06 04:53:18;;;;;;;6.90;5.77;;;9.30;99.90;;;;;;5047127;28;20300;-73
2022/04/06 04:55:44;;;;;;;5.83;5.33;;;9.30;99.90;;;;;;5047134;28;20640;-73
2022/04/06 04:58:09;;;;;;;6.80;5.30;;;9.30;99.90;;;;;;5047062;28;20657;-73
2022/04/06 05:00:35;;;;;;;5.10;4.60;;;9.30;99.90;;;;;;5046890;28;20421;-74
2022/04/06 05:03:02;;;;;;;5.87;5.13;;;9.40;99.90;;;;;;5045157;28;20269;-74
2022/04/06 05:05:28;;;;;;;4.23;3.93;;;9.40;99.90;;;;;;5046683;28;20230;-74
2022/04/06 05:07:57;;;;;;;5.23;4.70;;;9.40;99.90;;;;;;5047020;28;20645;-74
2022/04/06 05:10:23;;;;;;;5.00;4.60;;;9.40;99.90;;;;;;5047038;28;20183;-74
2022/04/06 05:12:48;;;;;;;6.33;4.70;;;9.40;99.90;;;;;;5047492;28;20516;-73
2022/04/06 05:15:14;;;;;;;10.20;5.40;;;9.40;99.90;;;;;;5047921;28;20442;-73
2022/04/06 05:17:40;;;;;;;4.50;4.10;;;9.40;99.90;;;;;;5047863;28;20631;-74
2022/04/06 05:20:07;;;;;;;5.70;4.27;;;9.50;99.90;;;;;;5048159;28;20195;-73
2022/04/06 05:22:33;;;;;;;11.07;4.40;;;9.50;99.90;;;;;;5045907;28;20184;-73
2022/04/06 05:25:00;;;;;;;4.83;4.20;;;9.50;99.90;;;;;;5047851;28;20540;-73
2022/04/06 05:27:26;;;;;;;4.10;3.80;;;9.50;99.90;;;;;;5047592;28;20186;-73
2022/04/06 05:29:51;;;;;;;5.10;4.63;;;9.50;99.90;;;;;;5047458;28;20420;-73
2022/04/06 05:32:17;;;;;;;4.33;4.03;;;9.50;99.90;;;;;;5047536;28;20551;-74
2022/04/06 05:34:43;;;;;;;3.80;3.50;;;9.50;99.90;;;;;;5047486;28;20310;-75
2022/04/06 05:37:08;;;;;;;5.73;3.37;;;9.60;99.90;;;;;;5047174;28;20273;-74
2022/04/06 05:39:34;;;;;;;5.40;4.00;;;9.60;99.90;;;;;;5047310;28;20230;-74
2022/04/06 05:42:00;;;;;;;5.87;4.50;;;9.60;99.90;;;;;;5047553;28;20706;-74
2022/04/06 05:44:25;;;;;;;3.90;3.60;;;9.60;99.90;;;;;;5046264;28;20342;-74
2022/04/06 05:46:51;;;;;;;4.97;3.80;;;9.60;99.90;;;;;;5048209;28;20239;-74
2022/04/06 05:49:17;;;;;;;5.53;4.07;;;9.60;99.90;;;;;;5048520;28;20230;-73
2022/04/06 05:51:44;;;;;;;3.97;3.60;;;9.70;99.90;;;;;;5051263;28;20202;-74
2022/04/06 05:54:10;;;;;;;3.90;3.60;;;9.70;99.90;;;;;;5050937;28;20474;-73
2022/04/06 05:56:35;;;;;;;3.60;3.27;;;9.70;99.90;;;;;;5050312;28;20824;-72
2022/04/06 05:59:02;;;;;;;3.70;3.23;;;9.70;99.90;;;;;;5049993;28;20621;-74
2022/04/06 06:01:27;;;;;;;3.63;3.33;;;9.70;99.90;;;;;;5050049;28;20303;-74
2022/04/06 06:03:53;;;;;;;4.37;3.27;;;9.70;99.90;;;;;;5048547;28;20505;-75
2022/04/06 06:06:18;;;;;;;3.27;2.90;;;9.70;99.90;;;;;;5051400;28;20229;-73
2022/04/06 06:08:44;;;;;;;3.60;3.30;;;9.80;99.90;;;;;;5049293;28;20198;-73
2022/04/06 06:11:10;;;;;;;2.73;2.53;;;9.80;99.90;;;;;;5049213;28;20195;-72
2022/04/06 06:13:36;;;;;;;2.70;2.50;;;9.80;99.90;;;;;;5050056;28;20848;-72
2022/04/06 06:16:04;;;;;;;2.50;2.30;;;9.80;99.90;;;;;;5050001;28;20531;-73
2022/04/06 06:18:30;;;;;;;3.77;3.00;;;9.80;99.90;;;;;;5050854;28;20183;-73
2022/04/06 06:21:00;;;;;;;3.67;3.20;;;9.90;99.90;;;;;;5050731;28;20416;-72
2022/04/06 06:23:27;;;;;;;2.57;2.40;;;9.90;99.90;;;;;;5051067;28;20185;-74
2022/04/06 06:25:53;;;;;;;2.50;2.37;;;9.80;99.90;;;;;;5050607;28;20444;-73
2022/04/06 06:28:19;;;;;;;2.33;2.23;;;9.90;99.90;;;;;;5050835;28;20475;-74
2022/04/06 06:30:44;;;;;;;2.33;2.13;;;9.90;99.90;;;;;;5049343;28;20196;-74
2022/04/06 06:33:10;;;;;;;2.80;2.07;;;9.90;99.90;;;;;;5049213;28;20214;-74
2022/04/06 06:35:36;;;;;;;2.30;2.07;;;9.90;99.90;;;;;;5050615;28;20230;-73
2022/04/06 06:38:02;;;;;;;2.43;2.23;;;9.90;99.90;;;;;;5048936;28;20448;-72
2022/04/06 06:40:28;;;;;;;4.43;2.23;;;10.00;99.90;;;;;;5048756;28;20246;-74
2022/04/06 06:42:54;;;;;;;2.03;1.93;;;10.00;99.90;;;;;;5050103;28;20188;-73
2022/04/06 06:45:19;;;;;;;1.83;1.70;;;10.00;99.90;;;;;;5049798;28;20445;-72
2022/04/06 06:47:46;;;;;;;1.77;1.67;;;10.10;99.90;;;;;;5049868;28;20221;-72
2022/04/06 06:50:14;;;;;;;2.17;2.07;;;10.10;99.90;;;;;;5049675;28;20188;-72
2022/04/06 06:52:40;;;;;;;2.03;1.90;;;10.10;99.90;;;;;;5049786;28;20470;-72
2022/04/06 06:55:07;;;;;;;2.23;1.80;;;10.10;99.90;;;;;;5049542;28;20537;-73
2022/04/06 06:57:34;;;;;;;1.97;1.87;;;10.20;99.90;;;;;;5049712;28;20181;-73
2022/04/06 07:00:00;;;;;;;2.00;1.80;;;10.20;99.90;;;;;;5048396;28;20425;-73
2022/04/06 07:02:25;;;;;;;2.27;1.97;;;10.20;99.90;;;;;;5049218;28;20893;-73
2022/04/06 07:04:51;;;;;;;2.03;1.93;;;10.20;99.90;;;;;;5048791;28;20462;-73
2022/04/06 07:07:17;;;;;;;1.70;1.60;;;10.20;99.90;;;;;;5049049;28;20260;-73
2022/04/06 07:09:42;;;;;;;2.90;1.90;;;10.30;99.90;;;;;;5047413;28;20943;-73
2022/04/06 07:12:10;;;;;;;1.87;1.77;;;10.30;99.90;;;;;;5049019;28;20184;-73
2022/04/06 07:14:36;;;;;;;2.20;2.10;;;10.30;99.90;;;;;;5048825;28;20215;-73
2022/04/06 07:17:02;;;;;;;1.63;1.47;;;10.30;99.90;;;;;;5048762;28;20476;-73
2022/04/06 07:19:28;;;;;;;1.70;1.60;;;10.30;99.90;;;;;;5048842;28;20845;-72
2022/04/06 07:21:53;;;;;;;2.73;1.77;;;10.30;99.90;;;;;;5030954;28;20492;-73
2022/04/06 07:24:19;;;;;;;2.17;1.63;;;10.30;99.90;;;;;;5048502;28;20253;-73
2022/04/06 07:26:45;;;;;;;1.30;1.20;;;10.40;99.90;;;;;;5048796;28;20198;-73
2022/04/06 07:29:15;;;;;;;1.70;1.60;;;10.50;99.90;;;;;;5049021;28;20191;-74
2022/04/06 07:31:44;;;;;;;1.40;1.27;;;10.50;99.90;;;;;;5047260;28;20230;-73
2022/04/06 07:34:10;;;;;;;1.17;1.07;;;10.50;99.90;;;;;;5046995;28;20539;-73
2022/04/06 07:36:36;;;;;;;1.93;1.20;;;10.50;99.90;;;;;;5048382;28;21119;-73
2022/04/06 07:39:03;;;;;;;1.20;1.10;;;10.60;99.90;;;;;;5048333;28;20419;-73
2022/04/06 07:41:30;;;;;;;1.30;1.20;;;10.60;99.90;;;;;;5046965;28;20427;-73
2022/04/06 07:43:56;;;;;;;0.80;0.80;;;10.60;99.90;;;;;;5047055;28;20538;-72
2022/04/06 07:46:21;;;;;;;1.53;1.10;;;10.70;99.90;;;;;;5048285;28;20525;-74
2022/04/06 07:48:47;;;;;;;0.87;0.87;;;10.70;99.90;;;;;;5048348;28;20199;-72
2022/04/06 07:51:13;;;;;;;1.10;0.73;;;10.70;99.90;;;;;;5046651;28;20204;-73
2022/04/06 07:53:39;;;;;;;1.10;1.00;;;10.70;99.90;;;;;;5048017;28;20219;-72
2022/04/06 07:56:06;;;;;;;1.40;0.90;;;10.70;99.90;;;;;;5046363;28;20291;-73
2022/04/06 07:58:32;;;;;;;1.67;0.90;;;10.80;99.90;;;;;;5048089;28;20217;-72
2022/04/06 08:00:58;;;;;;;1.00;1.00;;;10.80;99.90;;;;;;5047822;28;20445;-74
2022/04/06 08:03:23;;;;;;;0.97;0.80;;;10.80;99.90;;;;;;5047557;28;20876;-72
2022/04/06 08:05:50;;;;;;;2.30;0.80;;;10.90;99.90;;;;;;5047275;28;20231;-72
2022/04/06 08:08:16;;;;;;;0.90;0.80;;;10.90;99.90;;;;;;5047714;28;20187;-74
2022/04/06 08:10:42;;;;;;;1.07;0.93;;;10.80;99.90;;;;;;5047747;28;20534;-74
2022/04/06 08:13:08;;;;;;;1.10;1.00;;;10.80;99.90;;;;;;5046267;28;21113;-74
2022/04/06 08:15:33;;;;;;;1.00;1.00;;;10.80;99.90;;;;;;5047594;28;20196;-73
2022/04/06 08:17:59;;;;;;;1.13;0.97;;;10.90;99.90;;;;;;5045775;28;20712;-74
2022/04/06 08:20:26;;;;;;;2.10;1.10;;;11.00;99.90;;;;;;5028828;28;20203;-73
2022/04/06 08:22:52;;;;;;;1.60;1.37;;;11.10;99.90;;;;;;5047847;28;20419;-74
2022/04/06 08:25:18;;;;;;;1.03;0.90;;;11.10;99.90;;;;;;5046495;28;20447;-73
2022/04/06 08:27:44;;;;;;;1.60;1.50;;;11.10;99.90;;;;;;5047908;28;20444;-73
2022/04/06 08:30:11;;;;;;;1.03;0.80;;;11.20;99.90;;;;;;5047937;28;20436;-73
2022/04/06 08:32:37;;;;;;;0.90;0.90;;;11.30;99.90;;;;;;5047952;28;20645;-73
2022/04/06 08:35:04;;;;;;;0.90;0.90;;;11.50;99.90;;;;;;5048106;28;20447;-73
2022/04/06 08:37:30;;;;;;;3.37;1.10;;;11.50;99.90;;;;;;5047258;28;20429;-73
2022/04/06 08:39:56;;;;;;;0.93;0.83;;;11.60;99.90;;;;;;5048515;28;20422;-74
2022/04/06 08:42:23;;;;;;;2.23;1.07;;;11.70;99.90;;;;;;5048408;28;20471;-73
2022/04/06 08:44:49;;;;;;;1.80;0.80;;;11.70;99.90;;;;;;5047634;28;20448;-73
2022/04/06 08:47:17;;;;;;;1.40;1.30;;;11.80;99.90;;;;;;5047984;28;20783;-73
2022/04/06 08:49:45;;;;;;;0.93;0.83;;;11.90;99.90;;;;;;5047920;28;20279;-72
2022/04/06 08:52:11;;;;;;;1.67;0.90;;;12.00;99.90;;;;;;5047984;28;20765;-73
2022/04/06 08:54:38;;;;;;;1.07;0.80;;;12.10;99.90;;;;;;5047810;28;20475;-73
2022/04/06 08:57:05;;;;;;;94.30;40.20;;;12.10;99.90;;;;;;5046156;28;20515;-73
2022/04/06 08:59:32;;;;;;;4.60;2.63;;;12.10;99.90;;;;;;5047507;28;20415;-74
2022/04/06 09:01:58;;;;;;;1.43;1.00;;;12.20;99.90;;;;;;5047809;28;20438;-73
2022/04/06 09:04:24;;;;;;;1.30;1.20;;;12.40;99.90;;;;;;5047456;28;20458;-73
2022/04/06 09:06:51;;;;;;;1.13;0.80;;;12.40;99.90;;;;;;5047489;28;20791;-74
2022/04/06 09:09:24;;;;;;;1.73;0.67;;;12.30;99.90;;;;;;5047629;28;20920;-73
2022/04/06 09:11:50;;;;;;;1.20;0.80;;;12.30;99.90;;;;;;5047458;28;20427;-74
2022/04/06 09:14:28;;;;;;;2.50;0.70;;;12.30;99.90;;;;;;5045581;28;21001;-74
2022/04/06 09:17:04;;;;;;;1.67;0.87;;;12.40;99.90;;;;;;5047392;28;20714;-73
2022/04/06 09:19:30;;;;;;;2.03;0.80;;;12.40;99.90;;;;;;5047279;28;21243;-73
2022/04/06 09:21:56;;;;;;;0.80;0.73;;;12.40;99.90;;;;;;5047397;28;20420;-73
2022/04/06 09:24:24;;;;;;;0.70;0.60;;;12.50;99.90;;;;;;5050571;28;20497;-71
2022/04/06 09:26:57;;;;;;;1.93;0.70;;;12.60;99.90;;;;;;5052359;28;20420;-73
2022/04/06 09:29:23;;;;;;;1.00;0.80;;;12.50;99.90;;;;;;5051310;28;20786;-73
2022/04/06 09:31:49;;;;;;;0.80;0.70;;;12.70;99.90;;;;;;5051105;28;20424;-73
2022/04/06 09:34:15;;;;;;;1.00;0.70;;;13.20;99.90;;;;;;5051145;28;20491;-73
2022/04/06 09:36:41;;;;;;;1.03;0.80;;;13.40;99.90;;;;;;5051028;28;20915;-73
2022/04/06 09:39:07;;;;;;;2.30;0.60;;;13.60;99.90;;;;;;5050917;28;20646;-73
2022/04/06 09:41:34;;;;;;;1.13;0.57;;;13.90;99.90;;;;;;5051210;28;20288;-74
2022/04/06 09:47:38;;;;;;;1.10;0.70;;;13.90;99.90;;;;;;5049157;28;20963;-74
2022/04/06 09:50:10;;;;;;;1.07;0.67;;;14.20;99.90;;;;;;5050534;28;21255;-72
2022/04/06 09:52:37;;;;;;;0.80;0.57;;;14.20;99.90;;;;;;5050948;28;20835;-72
2022/04/06 09:55:06;;;;;;;0.80;0.63;;;14.20;99.90;;;;;;5050138;28;20529;-74
2022/04/06 09:57:44;;;;;;;0.87;0.77;;;14.00;99.90;;;;;;5050470;28;20418;-74
2022/04/06 10:00:17;;;;;;;0.80;0.70;;;14.20;99.90;;;;;;5050141;28;20423;-73
2022/04/06 10:02:50;;;;;;;0.70;0.60;;;14.30;99.90;;;;;;5050362;28;20802;-73
2022/04/06 10:05:19;;;;;;;0.70;0.60;;;14.30;99.90;;;;;;5050230;28;20472;-72
2022/04/06 10:07:45;;;;;;;0.80;0.60;;;14.30;99.90;;;;;;5050627;28;20949;-73
2022/04/06 10:10:12;;;;;;;2.50;0.70;;;14.00;99.90;;;;;;5050657;28;20505;-74
2022/04/06 10:12:39;;;;;;;0.70;0.50;;;14.10;99.90;;;;;;5050467;28;20418;-74
2022/04/06 10:15:05;;;;;;;1.50;0.60;;;14.10;99.90;;;;;;5050678;28;20859;-73
2022/04/06 10:17:31;;;;;;;1.70;0.87;;;14.10;99.90;;;;;;5051582;28;20425;-72
2022/04/06 10:20:35;;;;;;;0.70;0.50;;;14.10;99.90;;;;;;5050099;28;20421;-73
2022/04/06 10:23:19;;;;;;;1.73;0.63;;;14.20;99.90;;;;;;5049880;28;20788;-73
2022/04/06 10:25:48;;;;;;;1.83;0.70;;;14.30;99.90;;;;;;5048123;28;21154;-74
2022/04/06 10:28:15;;;;;;;0.80;0.70;;;14.30;99.90;;;;;;5049905;28;20410;-73
2022/04/06 10:30:40;;;;;;;1.73;0.73;;;14.50;99.90;;;;;;5049683;28;20418;-73
2022/04/06 10:33:20;;;;;;;1.27;0.70;;;14.60;99.90;;;;;;5049651;28;20469;-74
2022/04/06 10:35:46;;;;;;;0.80;0.70;;;14.50;99.90;;;;;;5049262;28;20959;-75
2022/04/06 10:38:17;;;;;;;3.63;0.70;;;14.80;99.90;;;;;;5049524;28;20406;-75
2022/04/06 10:40:42;;;;;;;0.80;0.60;;;15.30;99.90;;;;;;5050239;28;20424;-74
2022/04/06 10:43:34;;;;;;;0.90;0.50;;;15.70;99.60;;;;;;5050644;28;20411;-73
2022/04/06 10:46:00;;;;;;;0.80;0.50;;;16.30;99.90;;;;;;5049000;28;20278;-73
2022/04/06 10:48:27;;;;;;;1.20;0.50;;;16.80;98.60;;;;;;5049281;28;21080;-73
2022/04/06 10:51:13;;;;;;;1.40;0.60;;;17.10;95.80;;;;;;5049480;28;20568;-74
2022/04/06 10:53:38;;;;;;;1.10;0.50;;;17.80;96.80;;;;;;5049306;28;20471;-74
2022/04/06 10:56:16;;;;;;;0.80;0.60;;;18.60;95.90;;;;;;5049475;28;20514;-73
2022/04/06 10:58:54;;;;;;;0.97;0.60;;;18.80;91.90;;;;;;5049433;28;20164;-73
2022/04/06 11:01:29;;;;;;;1.33;0.60;;;19.00;94.60;;;;;;5047507;28;20430;-73
2022/04/06 11:03:58;;;;;;;0.80;0.60;;;18.90;94.10;;;;;;5049075;28;20454;-74
2022/04/06 11:06:49;;;;;;;1.03;0.40;;;18.90;94.30;;;;;;5031163;28;20471;-73
2022/04/06 11:12:15;;;;;;;3.20;0.67;;;18.50;93.60;;;;;;5048994;28;20453;-72
2022/04/06 11:14:47;;;;;;;0.93;0.83;;;17.70;93.10;;;;;;5048613;28;20800;-73
2022/04/06 11:17:34;;;;;;;0.80;0.60;;;18.30;95.00;;;;;;5048812;28;20414;-73
2022/04/06 11:20:09;;;;;;;1.00;0.60;;;18.20;92.80;;;;;;5047071;28;20460;-74
2022/04/06 11:22:38;;;;;;;1.20;0.67;;;17.80;92.90;;;;;;5047230;28;20669;-74
2022/04/06 11:25:08;;;;;;;7.40;0.53;;;17.80;94.30;;;;;;5048517;28;20938;-74
2022/04/06 11:27:35;;;;;;;0.80;0.50;;;18.60;92.60;;;;;;5048679;28;20423;-73
2022/04/06 11:30:19;;;;;;;0.70;0.50;;;19.00;93.60;;;;;;5047260;28;20420;-73
2022/04/06 11:32:54;;;;;;;1.20;0.70;;;19.50;91.40;;;;;;5048508;28;20422;-73
2022/04/06 11:35:21;;;;;;;0.90;0.50;;;19.60;90.50;;;;;;5048120;28;20437;-73
2022/04/06 11:37:48;;;;;;;2.30;0.50;;;20.10;89.10;;;;;;5047924;28;21033;-73
2022/04/06 11:40:16;;;;;;;1.27;0.50;;;20.30;86.60;;;;;;5047887;28;20424;-73
2022/04/06 11:42:56;;;;;;;0.80;0.60;;;20.80;89.60;;;;;;5047728;28;20431;-74
2022/04/06 11:45:23;;;;;;;0.80;0.57;;;20.80;85.40;;;;;;5047703;28;20443;-75
2022/04/06 11:48:00;;;;;;;1.73;0.47;;;21.00;81.50;;;;;;5047183;28;20561;-74
2022/04/06 11:50:37;;;;;;;0.70;0.50;;;20.30;85.00;;;;;;5047693;28;20422;-74
2022/04/06 11:53:07;;;;;;;1.60;0.60;;;20.00;87.20;;;;;;5047701;28;20492;-74
2022/04/06 11:55:47;;;;;;;0.97;0.60;;;20.40;86.10;;;;;;5045894;28;20448;-74
2022/04/06 11:58:34;;;;;;;0.80;0.50;;;20.80;86.40;;;;;;5047515;28;20428;-74
2022/04/06 12:01:10;;;;;;;1.23;0.90;;;20.80;78.40;;;;;;5047892;28;20794;-73
2022/04/06 12:03:40;;;;;;;1.10;0.50;;;21.30;82.70;;;;;;5045941;28;20465;-74
2022/04/06 12:06:09;;;;;;;1.67;0.50;;;21.80;81.10;;;;;;5046010;28;20479;-73
2022/04/06 12:08:37;;;;;;;1.00;0.47;;;22.10;77.40;;;;;;5046632;28;20432;-73
2022/04/06 12:11:03;;;;;;;1.20;0.57;;;21.30;77.40;;;;;;5046318;28;21219;-74
2022/04/06 12:13:32;;;;;;;0.70;0.50;;;20.90;77.70;;;;;;5046368;28;20490;-73
2022/04/06 12:15:59;;;;;;;0.80;0.50;;;20.70;80.50;;;;;;5047666;28;20525;-73
2022/04/06 12:18:26;;;;;;;1.77;0.50;;;21.20;82.60;;;;;;5047554;28;20589;-73
2022/04/06 12:20:54;;;;;;;1.00;0.50;;;21.30;81.00;;;;;;5047466;28;20915;-73
2022/04/06 12:23:23;;;;;;;1.47;0.50;;;21.50;80.80;;;;;;5047511;28;20492;-73
2022/04/06 12:25:48;;;;;;;0.80;0.50;;;20.90;76.20;;;;;;5045609;28;20542;-73
2022/04/06 12:28:18;;;;;;;0.83;0.50;;;21.00;77.20;;;;;;5047460;28;21424;-74
2022/04/06 12:31:01;;;;;;;3.17;0.63;;;21.20;76.40;;;;;;5047437;28;20218;-73
2022/04/06 12:33:43;;;;;;;0.80;0.50;;;21.30;76.60;;;;;;5047274;28;20510;-74
2022/04/06 12:36:25;;;;;;;0.83;0.60;;;21.70;79.70;;;;;;5045690;28;20908;-73
2022/04/06 12:39:10;;;;;;;1.03;0.50;;;21.90;74.10;;;;;;5047281;28;20911;-74
2022/04/06 12:42:02;;;;;;;0.70;0.50;;;22.00;74.40;;;;;;5047149;28;20425;-74
2022/04/06 12:44:29;;;;;;;0.70;0.60;;;21.90;71.60;;;;;;5047516;28;20433;-73
2022/04/06 12:46:55;;;;;;;0.70;0.40;;;21.90;71.80;;;;;;5047167;28;20818;-73
2022/04/06 12:49:27;;;;;;;1.77;0.57;;;21.90;72.00;;;;;;5047216;28;20433;-73
2022/04/06 12:52:15;;;;;;;1.23;0.40;;;21.90;71.40;;;;;;5047292;28;20480;-73
2022/04/06 12:54:49;;;;;;;0.77;0.50;;;22.00;72.90;;;;;;5046868;28;20477;-74
2022/04/06 12:57:19;;;;;;;1.47;0.57;;;22.00;68.80;;;;;;5047129;28;20422;-73
2022/04/06 13:00:03;;;;;;;5.00;0.50;;;22.10;70.00;;;;;;5050346;28;20417;-73
2022/04/06 13:02:29;;;;;;;0.80;0.60;;;21.80;71.20;;;;;;5051046;28;20426;-73
2022/04/06 13:05:09;;;;;;;1.00;0.60;;;21.90;69.30;;;;;;5051089;28;21415;-74